sensor_id;sensor_type;location;lat;lon;timestamp;P1;durP1;ratioP1;P2;durP2;ratioP2
20000;SDS011;10161;41.188;-8.642;2022-11-20T00:02:20;11.97;;;9.73;;
20000;SDS011;10161;41.188;-8.642;2022-11-20T00:04:47;12.93;;;9.33;;
20000;SDS011;10161;41.188;-8.642;2022-11-20T00:07:14;10.93;;;8.70;;
20000;SDS011;10161;41.188;-8.642;2022-11-20T00:09:41;10.30;;;7.80;;
20000;SDS011;10161;41.188;-8.642;2022-11-20T00:12:08;14.53;;;8.13;;
20000;SDS011;10161;41.188;-8.642;2022-11-20T00:14:36;9.20;;;7.10;;
20000;SDS011;10161;41.188;-8.642;2022-11-20T00:17:03;12.87;;;7.53;;
20000;SDS011;10161;41.188;-8.642;2022-11-20T00:19:30;9.53;;;7.33;;
20000;SDS011;10161;41.188;-8.642;2022-11-20T00:21:57;12.50;;;7.97;;
20000;SDS011;10161;41.188;-8.642;2022-11-20T00:24:24;9.10;;;7.40;;
20000;SDS011;10161;41.188;-8.642;2022-11-20T00:26:50;9.40;;;7.20;;
20000;SDS011;10161;41.188;-8.642;2022-11-20T00:29:17;8.23;;;6.80;;
20000;SDS011;10161;41.188;-8.642;2022-11-20T00:31:45;9.40;;;6.80;;
20000;SDS011;10161;41.188;-8.642;2022-11-20T00:34:12;12.87;;;9.77;;
20000;SDS011;10161;41.188;-8.642;2022-11-20T00:36:39;9.50;;;8.50;;
20000;SDS011;10161;41.188;-8.642;2022-11-20T00:39:06;9.97;;;8.30;;
20000;SDS011;10161;41.188;-8.642;2022-11-20T00:41:33;10.70;;;8.37;;
20000;SDS011;10161;41.188;-8.642;2022-11-20T00:44:00;14.53;;;8.20;;
20000;SDS011;10161;41.188;-8.642;2022-11-20T00:46:27;10.33;;;8.30;;
20000;SDS011;10161;41.188;-8.642;2022-11-20T00:48:56;9.90;;;7.43;;
20000;SDS011;10161;41.188;-8.642;2022-11-20T00:51:24;9.40;;;8.10;;
20000;SDS011;10161;41.188;-8.642;2022-11-20T00:53:52;8.80;;;7.67;;
20000;SDS011;10161;41.188;-8.642;2022-11-20T00:56:21;9.63;;;7.00;;
20000;SDS011;10161;41.188;-8.642;2022-11-20T00:58:48;9.90;;;7.43;;
20000;SDS011;10161;41.188;-8.642;2022-11-20T01:01:16;8.60;;;6.20;;
20000;SDS011;10161;41.188;-8.642;2022-11-20T01:03:45;14.00;;;8.87;;
20000;SDS011;10161;41.188;-8.642;2022-11-20T01:06:15;9.70;;;6.13;;
20000;SDS011;10161;41.188;-8.642;2022-11-20T01:08:43;15.43;;;7.77;;
20000;SDS011;10161;41.188;-8.642;2022-11-20T01:11:11;10.00;;;7.33;;
20000;SDS011;10161;41.188;-8.642;2022-11-20T01:13:39;10.60;;;7.30;;
20000;SDS011;10161;41.188;-8.642;2022-11-20T01:16:07;10.20;;;7.67;;
20000;SDS011;10161;41.188;-8.642;2022-11-20T01:18:36;11.37;;;6.90;;
20000;SDS011;10161;41.188;-8.642;2022-11-20T01:21:04;11.63;;;6.83;;
20000;SDS011;10161;41.188;-8.642;2022-11-20T01:23:35;13.13;;;7.13;;
20000;SDS011;10161;41.188;-8.642;2022-11-20T01:26:03;11.67;;;7.00;;
20000;SDS011;10161;41.188;-8.642;2022-11-20T01:28:33;13.23;;;6.97;;
20000;SDS011;10161;41.188;-8.642;2022-11-20T01:31:00;15.70;;;6.80;;
20000;SDS011;10161;41.188;-8.642;2022-11-20T01:33:27;11.43;;;7.17;;
20000;SDS011;10161;41.188;-8.642;2022-11-20T01:36:02;10.43;;;7.00;;
20000;SDS011;10161;41.188;-8.642;2022-11-20T01:38:30;13.97;;;6.93;;
20000;SDS011;10161;41.188;-8.642;2022-11-20T01:40:58;9.13;;;7.03;;
20000;SDS011;10161;41.188;-8.642;2022-11-20T01:43:25;12.10;;;7.40;;
20000;SDS011;10161;41.188;-8.642;2022-11-20T01:46:02;11.43;;;5.87;;
20000;SDS011;10161;41.188;-8.642;2022-11-20T01:48:36;13.17;;;7.13;;
20000;SDS011;10161;41.188;-8.642;2022-11-20T01:51:06;10.60;;;6.70;;
20000;SDS011;10161;41.188;-8.642;2022-11-20T01:53:37;10.03;;;6.90;;
20000;SDS011;10161;41.188;-8.642;2022-11-20T01:56:07;12.83;;;6.83;;
20000;SDS011;10161;41.188;-8.642;2022-11-20T01:58:37;10.07;;;6.43;;
20000;SDS011;10161;41.188;-8.642;2022-11-20T02:01:07;8.37;;;6.90;;
20000;SDS011;10161;41.188;-8.642;2022-11-20T02:03:34;7.33;;;6.37;;
20000;SDS011;10161;41.188;-8.642;2022-11-20T02:06:03;11.80;;;6.10;;
20000;SDS011;10161;41.188;-8.642;2022-11-20T02:08:32;7.67;;;5.30;;
20000;SDS011;10161;41.188;-8.642;2022-11-20T02:11:00;9.03;;;5.77;;
20000;SDS011;10161;41.188;-8.642;2022-11-20T02:13:28;7.20;;;5.50;;
20000;SDS011;10161;41.188;-8.642;2022-11-20T02:16:15;7.83;;;5.10;;
20000;SDS011;10161;41.188;-8.642;2022-11-20T02:18:43;6.93;;;5.30;;
20000;SDS011;10161;41.188;-8.642;2022-11-20T02:21:14;11.50;;;6.50;;
20000;SDS011;10161;41.188;-8.642;2022-11-20T02:24:04;8.47;;;5.40;;
20000;SDS011;10161;41.188;-8.642;2022-11-20T02:26:33;15.57;;;6.60;;
20000;SDS011;10161;41.188;-8.642;2022-11-20T02:29:03;12.10;;;6.73;;
20000;SDS011;10161;41.188;-8.642;2022-11-20T02:31:35;8.10;;;5.70;;
20000;SDS011;10161;41.188;-8.642;2022-11-20T02:34:03;9.03;;;5.67;;
20000;SDS011;10161;41.188;-8.642;2022-11-20T02:36:30;11.13;;;5.53;;
20000;SDS011;10161;41.188;-8.642;2022-11-20T02:38:58;10.27;;;5.60;;
20000;SDS011;10161;41.188;-8.642;2022-11-20T02:41:31;10.43;;;5.70;;
20000;SDS011;10161;41.188;-8.642;2022-11-20T02:43:59;6.77;;;5.40;;
20000;SDS011;10161;41.188;-8.642;2022-11-20T02:46:26;7.83;;;5.13;;
20000;SDS011;10161;41.188;-8.642;2022-11-20T02:48:53;13.00;;;5.20;;
20000;SDS011;10161;41.188;-8.642;2022-11-20T02:51:20;8.97;;;5.30;;
20000;SDS011;10161;41.188;-8.642;2022-11-20T02:53:46;9.23;;;5.93;;
20000;SDS011;10161;41.188;-8.642;2022-11-20T02:56:13;7.30;;;5.10;;
20000;SDS011;10161;41.188;-8.642;2022-11-20T02:58:42;9.13;;;4.57;;
20000;SDS011;10161;41.188;-8.642;2022-11-20T03:01:08;9.90;;;4.60;;
20000;SDS011;10161;41.188;-8.642;2022-11-20T03:03:35;8.10;;;5.37;;
20000;SDS011;10161;41.188;-8.642;2022-11-20T03:06:02;4.27;;;3.70;;
20000;SDS011;10161;41.188;-8.642;2022-11-20T03:08:29;4.83;;;3.53;;
20000;SDS011;10161;41.188;-8.642;2022-11-20T03:10:56;4.87;;;3.53;;
20000;SDS011;10161;41.188;-8.642;2022-11-20T03:13:24;5.50;;;3.80;;
20000;SDS011;10161;41.188;-8.642;2022-11-20T03:15:52;6.27;;;3.50;;
20000;SDS011;10161;41.188;-8.642;2022-11-20T03:18:19;6.70;;;4.40;;
20000;SDS011;10161;41.188;-8.642;2022-11-20T03:20:46;7.00;;;4.90;;
20000;SDS011;10161;41.188;-8.642;2022-11-20T03:23:13;5.57;;;3.70;;
20000;SDS011;10161;41.188;-8.642;2022-11-20T03:25:40;5.60;;;3.90;;
20000;SDS011;10161;41.188;-8.642;2022-11-20T03:28:07;5.73;;;4.20;;
20000;SDS011;10161;41.188;-8.642;2022-11-20T03:30:34;7.60;;;4.53;;
20000;SDS011;10161;41.188;-8.642;2022-11-20T03:33:02;4.87;;;3.57;;
20000;SDS011;10161;41.188;-8.642;2022-11-20T03:35:29;7.43;;;4.20;;
20000;SDS011;10161;41.188;-8.642;2022-11-20T03:37:57;6.20;;;3.70;;
20000;SDS011;10161;41.188;-8.642;2022-11-20T03:40:24;6.90;;;3.87;;
20000;SDS011;10161;41.188;-8.642;2022-11-20T03:42:50;6.20;;;3.90;;
20000;SDS011;10161;41.188;-8.642;2022-11-20T03:45:17;5.00;;;3.63;;
20000;SDS011;10161;41.188;-8.642;2022-11-20T03:47:44;5.43;;;4.63;;
20000;SDS011;10161;41.188;-8.642;2022-11-20T03:50:13;7.90;;;3.73;;
20000;SDS011;10161;41.188;-8.642;2022-11-20T03:52:40;6.30;;;4.10;;
20000;SDS011;10161;41.188;-8.642;2022-11-20T03:55:07;6.80;;;4.70;;
20000;SDS011;10161;41.188;-8.642;2022-11-20T03:57:34;12.73;;;4.40;;
20000;SDS011;10161;41.188;-8.642;2022-11-20T04:00:02;5.90;;;4.30;;
20000;SDS011;10161;41.188;-8.642;2022-11-20T04:02:29;4.50;;;3.73;;
20000;SDS011;10161;41.188;-8.642;2022-11-20T04:04:56;6.10;;;3.80;;
20000;SDS011;10161;41.188;-8.642;2022-11-20T04:07:25;4.53;;;3.70;;
20000;SDS011;10161;41.188;-8.642;2022-11-20T04:09:51;4.87;;;3.93;;
20000;SDS011;10161;41.188;-8.642;2022-11-20T04:12:18;6.43;;;4.03;;
20000;SDS011;10161;41.188;-8.642;2022-11-20T04:14:45;4.20;;;3.17;;
20000;SDS011;10161;41.188;-8.642;2022-11-20T04:17:12;8.60;;;3.60;;
20000;SDS011;10161;41.188;-8.642;2022-11-20T04:19:39;6.43;;;3.10;;
20000;SDS011;10161;41.188;-8.642;2022-11-20T04:22:07;4.97;;;3.37;;
20000;SDS011;10161;41.188;-8.642;2022-11-20T04:24:35;4.43;;;3.30;;
20000;SDS011;10161;41.188;-8.642;2022-11-20T04:27:02;4.47;;;2.97;;
20000;SDS011;10161;41.188;-8.642;2022-11-20T04:29:29;4.00;;;2.90;;
20000;SDS011;10161;41.188;-8.642;2022-11-20T04:31:56;4.43;;;2.63;;
20000;SDS011;10161;41.188;-8.642;2022-11-20T04:34:22;5.00;;;3.33;;
20000;SDS011;10161;41.188;-8.642;2022-11-20T04:36:49;4.00;;;2.57;;
20000;SDS011;10161;41.188;-8.642;2022-11-20T04:39:16;4.70;;;2.90;;
20000;SDS011;10161;41.188;-8.642;2022-11-20T04:41:44;3.97;;;2.87;;
20000;SDS011;10161;41.188;-8.642;2022-11-20T04:44:11;4.37;;;2.60;;
20000;SDS011;10161;41.188;-8.642;2022-11-20T04:46:39;2.87;;;2.40;;
20000;SDS011;10161;41.188;-8.642;2022-11-20T04:49:06;2.70;;;2.10;;
20000;SDS011;10161;41.188;-8.642;2022-11-20T04:51:34;4.73;;;2.20;;
20000;SDS011;10161;41.188;-8.642;2022-11-20T04:54:01;3.27;;;2.13;;
20000;SDS011;10161;41.188;-8.642;2022-11-20T04:56:28;3.60;;;2.20;;
20000;SDS011;10161;41.188;-8.642;2022-11-20T04:58:59;3.80;;;2.80;;
20000;SDS011;10161;41.188;-8.642;2022-11-20T05:01:26;3.23;;;2.40;;
20000;SDS011;10161;41.188;-8.642;2022-11-20T05:03:53;2.10;;;1.90;;
20000;SDS011;10161;41.188;-8.642;2022-11-20T05:06:20;1.93;;;1.70;;
20000;SDS011;10161;41.188;-8.642;2022-11-20T05:08:50;4.27;;;2.00;;
20000;SDS011;10161;41.188;-8.642;2022-11-20T05:11:18;2.70;;;1.87;;
20000;SDS011;10161;41.188;-8.642;2022-11-20T05:13:45;1.70;;;1.60;;
20000;SDS011;10161;41.188;-8.642;2022-11-20T05:16:14;3.03;;;2.83;;
20000;SDS011;10161;41.188;-8.642;2022-11-20T05:18:42;3.13;;;2.83;;
20000;SDS011;10161;41.188;-8.642;2022-11-20T05:21:10;3.73;;;2.00;;
20000;SDS011;10161;41.188;-8.642;2022-11-20T05:23:37;1.97;;;1.60;;
20000;SDS011;10161;41.188;-8.642;2022-11-20T05:26:05;2.30;;;1.73;;
20000;SDS011;10161;41.188;-8.642;2022-11-20T05:28:32;2.23;;;1.53;;
20000;SDS011;10161;41.188;-8.642;2022-11-20T05:31:09;1.67;;;1.57;;
20000;SDS011;10161;41.188;-8.642;2022-11-20T05:33:39;3.30;;;1.67;;
20000;SDS011;10161;41.188;-8.642;2022-11-20T05:36:06;4.50;;;1.77;;
20000;SDS011;10161;41.188;-8.642;2022-11-20T05:38:34;3.73;;;1.43;;
20000;SDS011;10161;41.188;-8.642;2022-11-20T05:41:04;1.90;;;1.70;;
20000;SDS011;10161;41.188;-8.642;2022-11-20T05:43:32;3.17;;;1.80;;
20000;SDS011;10161;41.188;-8.642;2022-11-20T05:46:00;2.73;;;1.53;;
20000;SDS011;10161;41.188;-8.642;2022-11-20T05:48:27;2.03;;;1.50;;
20000;SDS011;10161;41.188;-8.642;2022-11-20T05:50:55;2.33;;;1.63;;
20000;SDS011;10161;41.188;-8.642;2022-11-20T05:53:23;3.17;;;1.60;;
20000;SDS011;10161;41.188;-8.642;2022-11-20T05:55:55;2.00;;;1.63;;
20000;SDS011;10161;41.188;-8.642;2022-11-20T05:58:23;3.00;;;1.63;;
20000;SDS011;10161;41.188;-8.642;2022-11-20T06:00:50;1.50;;;1.40;;
20000;SDS011;10161;41.188;-8.642;2022-11-20T06:03:17;1.40;;;1.20;;
20000;SDS011;10161;41.188;-8.642;2022-11-20T06:05:44;3.77;;;1.20;;
20000;SDS011;10161;41.188;-8.642;2022-11-20T06:08:12;1.00;;;1.00;;
20000;SDS011;10161;41.188;-8.642;2022-11-20T06:10:39;1.27;;;1.17;;
20000;SDS011;10161;41.188;-8.642;2022-11-20T06:13:06;1.20;;;1.10;;
20000;SDS011;10161;41.188;-8.642;2022-11-20T06:15:33;0.80;;;0.80;;
20000;SDS011;10161;41.188;-8.642;2022-11-20T06:17:59;1.20;;;0.87;;
20000;SDS011;10161;41.188;-8.642;2022-11-20T06:20:26;1.20;;;1.10;;
20000;SDS011;10161;41.188;-8.642;2022-11-20T06:22:53;2.87;;;1.40;;
20000;SDS011;10161;41.188;-8.642;2022-11-20T06:25:21;1.90;;;1.33;;
20000;SDS011;10161;41.188;-8.642;2022-11-20T06:27:48;3.53;;;1.60;;
20000;SDS011;10161;41.188;-8.642;2022-11-20T06:30:15;2.93;;;1.80;;
20000;SDS011;10161;41.188;-8.642;2022-11-20T06:32:42;3.10;;;1.80;;
20000;SDS011;10161;41.188;-8.642;2022-11-20T06:35:09;2.70;;;1.73;;
20000;SDS011;10161;41.188;-8.642;2022-11-20T06:37:36;3.77;;;1.63;;
20000;SDS011;10161;41.188;-8.642;2022-11-20T06:40:03;1.90;;;1.40;;
20000;SDS011;10161;41.188;-8.642;2022-11-20T06:42:33;2.13;;;1.33;;
20000;SDS011;10161;41.188;-8.642;2022-11-20T06:45:00;2.23;;;1.50;;
20000;SDS011;10161;41.188;-8.642;2022-11-20T06:47:27;3.97;;;1.60;;
20000;SDS011;10161;41.188;-8.642;2022-11-20T06:49:54;2.10;;;1.50;;
20000;SDS011;10161;41.188;-8.642;2022-11-20T06:52:20;2.00;;;1.40;;
20000;SDS011;10161;41.188;-8.642;2022-11-20T06:54:47;1.53;;;1.43;;
20000;SDS011;10161;41.188;-8.642;2022-11-20T06:57:14;1.37;;;1.27;;
20000;SDS011;10161;41.188;-8.642;2022-11-20T06:59:42;2.60;;;1.43;;
20000;SDS011;10161;41.188;-8.642;2022-11-20T07:02:09;1.43;;;1.20;;
20000;SDS011;10161;41.188;-8.642;2022-11-20T07:04:37;1.50;;;1.40;;
20000;SDS011;10161;41.188;-8.642;2022-11-20T07:07:04;3.07;;;1.57;;
20000;SDS011;10161;41.188;-8.642;2022-11-20T07:09:31;2.00;;;1.80;;
20000;SDS011;10161;41.188;-8.642;2022-11-20T07:11:58;3.03;;;1.93;;
20000;SDS011;10161;41.188;-8.642;2022-11-20T07:14:25;1.83;;;1.33;;
20000;SDS011;10161;41.188;-8.642;2022-11-20T07:16:53;1.60;;;1.30;;
20000;SDS011;10161;41.188;-8.642;2022-11-20T07:19:20;3.00;;;1.50;;
20000;SDS011;10161;41.188;-8.642;2022-11-20T07:21:47;1.90;;;1.67;;
20000;SDS011;10161;41.188;-8.642;2022-11-20T07:24:14;2.27;;;1.47;;
20000;SDS011;10161;41.188;-8.642;2022-11-20T07:26:41;2.13;;;1.30;;
20000;SDS011;10161;41.188;-8.642;2022-11-20T07:29:08;2.90;;;1.40;;
20000;SDS011;10161;41.188;-8.642;2022-11-20T07:31:35;1.47;;;1.20;;
20000;SDS011;10161;41.188;-8.642;2022-11-20T07:34:03;1.50;;;1.40;;
20000;SDS011;10161;41.188;-8.642;2022-11-20T07:36:30;1.27;;;1.17;;
20000;SDS011;10161;41.188;-8.642;2022-11-20T07:38:57;1.80;;;1.20;;
20000;SDS011;10161;41.188;-8.642;2022-11-20T07:41:24;1.00;;;1.00;;
20000;SDS011;10161;41.188;-8.642;2022-11-20T07:43:50;2.00;;;1.20;;
20000;SDS011;10161;41.188;-8.642;2022-11-20T07:46:17;1.20;;;1.00;;
20000;SDS011;10161;41.188;-8.642;2022-11-20T07:48:44;1.10;;;1.03;;
20000;SDS011;10161;41.188;-8.642;2022-11-20T07:51:12;1.60;;;1.50;;
20000;SDS011;10161;41.188;-8.642;2022-11-20T07:53:39;1.27;;;1.17;;
20000;SDS011;10161;41.188;-8.642;2022-11-20T07:56:06;1.30;;;1.20;;
20000;SDS011;10161;41.188;-8.642;2022-11-20T07:58:33;2.40;;;1.60;;
20000;SDS011;10161;41.188;-8.642;2022-11-20T08:01:03;1.70;;;1.60;;
20000;SDS011;10161;41.188;-8.642;2022-11-20T08:03:30;2.37;;;2.00;;
20000;SDS011;10161;41.188;-8.642;2022-11-20T08:05:58;1.70;;;1.60;;
20000;SDS011;10161;41.188;-8.642;2022-11-20T08:08:27;2.57;;;1.60;;
20000;SDS011;10161;41.188;-8.642;2022-11-20T08:10:54;1.30;;;1.20;;
20000;SDS011;10161;41.188;-8.642;2022-11-20T08:13:43;1.23;;;1.20;;
20000;SDS011;10161;41.188;-8.642;2022-11-20T08:16:42;1.10;;;1.00;;
20000;SDS011;10161;41.188;-8.642;2022-11-20T08:19:10;1.40;;;1.30;;
20000;SDS011;10161;41.188;-8.642;2022-11-20T08:21:38;1.50;;;1.40;;
20000;SDS011;10161;41.188;-8.642;2022-11-20T08:24:07;1.50;;;1.40;;
20000;SDS011;10161;41.188;-8.642;2022-11-20T08:26:36;2.20;;;1.37;;
20000;SDS011;10161;41.188;-8.642;2022-11-20T08:29:03;1.50;;;1.40;;
20000;SDS011;10161;41.188;-8.642;2022-11-20T08:31:31;5.13;;;1.40;;
20000;SDS011;10161;41.188;-8.642;2022-11-20T08:33:58;1.73;;;1.50;;
20000;SDS011;10161;41.188;-8.642;2022-11-20T08:36:25;1.83;;;1.30;;
20000;SDS011;10161;41.188;-8.642;2022-11-20T08:38:53;1.30;;;1.20;;
20000;SDS011;10161;41.188;-8.642;2022-11-20T08:41:22;1.77;;;1.67;;
20000;SDS011;10161;41.188;-8.642;2022-11-20T08:43:54;1.30;;;1.20;;
20000;SDS011;10161;41.188;-8.642;2022-11-20T08:46:22;2.27;;;1.60;;
20000;SDS011;10161;41.188;-8.642;2022-11-20T08:48:50;2.43;;;1.50;;
20000;SDS011;10161;41.188;-8.642;2022-11-20T08:51:17;1.20;;;1.10;;
20000;SDS011;10161;41.188;-8.642;2022-11-20T08:53:44;1.27;;;1.13;;
20000;SDS011;10161;41.188;-8.642;2022-11-20T08:56:11;1.17;;;1.07;;
20000;SDS011;10161;41.188;-8.642;2022-11-20T08:58:39;2.00;;;1.10;;
20000;SDS011;10161;41.188;-8.642;2022-11-20T09:01:06;1.97;;;1.30;;
20000;SDS011;10161;41.188;-8.642;2022-11-20T09:03:33;2.10;;;1.20;;
20000;SDS011;10161;41.188;-8.642;2022-11-20T09:06:01;3.27;;;1.40;;
20000;SDS011;10161;41.188;-8.642;2022-11-20T09:08:29;3.10;;;1.20;;
20000;SDS011;10161;41.188;-8.642;2022-11-20T09:10:56;3.40;;;1.70;;
20000;SDS011;10161;41.188;-8.642;2022-11-20T09:13:24;2.70;;;1.70;;
20000;SDS011;10161;41.188;-8.642;2022-11-20T09:15:56;3.90;;;1.60;;
20000;SDS011;10161;41.188;-8.642;2022-11-20T09:18:24;2.80;;;1.30;;
20000;SDS011;10161;41.188;-8.642;2022-11-20T09:20:51;1.60;;;1.40;;
20000;SDS011;10161;41.188;-8.642;2022-11-20T09:23:22;2.80;;;1.90;;
20000;SDS011;10161;41.188;-8.642;2022-11-20T09:25:49;6.93;;;2.07;;
20000;SDS011;10161;41.188;-8.642;2022-11-20T09:28:16;3.50;;;2.07;;
20000;SDS011;10161;41.188;-8.642;2022-11-20T09:30:43;3.20;;;1.73;;
20000;SDS011;10161;41.188;-8.642;2022-11-20T09:33:12;3.63;;;1.77;;
20000;SDS011;10161;41.188;-8.642;2022-11-20T09:35:39;5.73;;;2.30;;
20000;SDS011;10161;41.188;-8.642;2022-11-20T09:38:06;3.07;;;1.50;;
20000;SDS011;10161;41.188;-8.642;2022-11-20T09:40:34;3.60;;;1.20;;
20000;SDS011;10161;41.188;-8.642;2022-11-20T09:43:03;2.23;;;1.30;;
20000;SDS011;10161;41.188;-8.642;2022-11-20T09:45:38;1.57;;;1.00;;
20000;SDS011;10161;41.188;-8.642;2022-11-20T09:48:18;3.10;;;1.83;;
20000;SDS011;10161;41.188;-8.642;2022-11-20T09:50:52;1.20;;;1.00;;
20000;SDS011;10161;41.188;-8.642;2022-11-20T09:53:24;2.20;;;1.13;;
20000;SDS011;10161;41.188;-8.642;2022-11-20T09:55:54;1.40;;;1.10;;
20000;SDS011;10161;41.188;-8.642;2022-11-20T09:58:25;1.90;;;1.10;;
20000;SDS011;10161;41.188;-8.642;2022-11-20T10:01:08;2.63;;;1.13;;
20000;SDS011;10161;41.188;-8.642;2022-11-20T10:03:39;3.80;;;1.10;;
20000;SDS011;10161;41.188;-8.642;2022-11-20T10:06:12;3.70;;;1.40;;
20000;SDS011;10161;41.188;-8.642;2022-11-20T10:08:42;6.10;;;2.03;;
20000;SDS011;10161;41.188;-8.642;2022-11-20T10:11:12;7.20;;;1.97;;
20000;SDS011;10161;41.188;-8.642;2022-11-20T10:13:44;5.83;;;1.80;;
20000;SDS011;10161;41.188;-8.642;2022-11-20T10:16:20;6.93;;;2.30;;
20000;SDS011;10161;41.188;-8.642;2022-11-20T10:18:56;9.30;;;2.50;;
20000;SDS011;10161;41.188;-8.642;2022-11-20T10:21:33;9.40;;;2.30;;
20000;SDS011;10161;41.188;-8.642;2022-11-20T10:27:08;8.70;;;1.83;;
20000;SDS011;10161;41.188;-8.642;2022-11-20T10:29:52;4.63;;;1.70;;
20000;SDS011;10161;41.188;-8.642;2022-11-20T10:32:28;3.50;;;1.60;;
20000;SDS011;10161;41.188;-8.642;2022-11-20T10:35:03;3.67;;;1.60;;
20000;SDS011;10161;41.188;-8.642;2022-11-20T10:37:33;6.30;;;2.10;;
20000;SDS011;10161;41.188;-8.642;2022-11-20T10:40:04;1.97;;;1.50;;
20000;SDS011;10161;41.188;-8.642;2022-11-20T10:42:41;2.60;;;2.27;;
20000;SDS011;10161;41.188;-8.642;2022-11-20T10:45:12;5.50;;;1.80;;
20000;SDS011;10161;41.188;-8.642;2022-11-20T10:47:42;2.97;;;2.10;;
20000;SDS011;10161;41.188;-8.642;2022-11-20T10:50:11;4.93;;;2.10;;
20000;SDS011;10161;41.188;-8.642;2022-11-20T10:52:42;5.00;;;2.23;;
20000;SDS011;10161;41.188;-8.642;2022-11-20T10:55:23;4.57;;;1.90;;
20000;SDS011;10161;41.188;-8.642;2022-11-20T10:57:54;4.80;;;2.07;;
20000;SDS011;10161;41.188;-8.642;2022-11-20T11:00:25;3.70;;;1.70;;
20000;SDS011;10161;41.188;-8.642;2022-11-20T11:02:52;4.83;;;1.87;;
20000;SDS011;10161;41.188;-8.642;2022-11-20T11:05:25;3.90;;;2.00;;
20000;SDS011;10161;41.188;-8.642;2022-11-20T11:07:58;3.43;;;1.90;;
20000;SDS011;10161;41.188;-8.642;2022-11-20T11:10:26;7.43;;;1.90;;
20000;SDS011;10161;41.188;-8.642;2022-11-20T11:12:56;2.70;;;2.07;;
20000;SDS011;10161;41.188;-8.642;2022-11-20T11:15:26;1.80;;;1.50;;
20000;SDS011;10161;41.188;-8.642;2022-11-20T11:17:55;1.83;;;1.60;;
20000;SDS011;10161;41.188;-8.642;2022-11-20T11:20:24;1.93;;;1.70;;
20000;SDS011;10161;41.188;-8.642;2022-11-20T11:22:52;3.20;;;1.70;;
20000;SDS011;10161;41.188;-8.642;2022-11-20T11:25:24;7.90;;;2.10;;
20000;SDS011;10161;41.188;-8.642;2022-11-20T11:27:53;7.03;;;2.00;;
20000;SDS011;10161;41.188;-8.642;2022-11-20T11:30:22;9.13;;;2.07;;
20000;SDS011;10161;41.188;-8.642;2022-11-20T11:32:50;7.40;;;2.60;;
20000;SDS011;10161;41.188;-8.642;2022-11-20T11:35:25;9.83;;;1.97;;
20000;SDS011;10161;41.188;-8.642;2022-11-20T11:37:54;4.47;;;2.20;;
20000;SDS011;10161;41.188;-8.642;2022-11-20T11:40:32;4.80;;;2.10;;
20000;SDS011;10161;41.188;-8.642;2022-11-20T11:43:01;7.97;;;2.00;;
20000;SDS011;10161;41.188;-8.642;2022-11-20T11:45:52;7.17;;;2.43;;
20000;SDS011;10161;41.188;-8.642;2022-11-20T11:48:18;7.80;;;2.20;;
20000;SDS011;10161;41.188;-8.642;2022-11-20T11:50:49;6.57;;;2.07;;
20000;SDS011;10161;41.188;-8.642;2022-11-20T11:53:17;6.83;;;2.13;;
20000;SDS011;10161;41.188;-8.642;2022-11-20T11:55:45;4.53;;;2.40;;
20000;SDS011;10161;41.188;-8.642;2022-11-20T11:58:16;5.00;;;1.70;;
20000;SDS011;10161;41.188;-8.642;2022-11-20T12:00:49;7.53;;;2.47;;
20000;SDS011;10161;41.188;-8.642;2022-11-20T12:03:23;6.07;;;2.33;;
20000;SDS011;10161;41.188;-8.642;2022-11-20T12:05:55;10.57;;;2.50;;
20000;SDS011;10161;41.188;-8.642;2022-11-20T12:08:25;5.83;;;2.00;;
20000;SDS011;10161;41.188;-8.642;2022-11-20T12:10:56;8.70;;;2.50;;
20000;SDS011;10161;41.188;-8.642;2022-11-20T12:13:32;8.30;;;2.40;;
20000;SDS011;10161;41.188;-8.642;2022-11-20T12:16:04;7.57;;;2.37;;
20000;SDS011;10161;41.188;-8.642;2022-11-20T12:18:31;6.93;;;2.00;;
20000;SDS011;10161;41.188;-8.642;2022-11-20T12:21:10;10.13;;;2.60;;
20000;SDS011;10161;41.188;-8.642;2022-11-20T12:23:46;4.90;;;1.80;;
20000;SDS011;10161;41.188;-8.642;2022-11-20T12:26:22;8.70;;;1.80;;
20000;SDS011;10161;41.188;-8.642;2022-11-20T12:28:59;8.90;;;2.33;;
20000;SDS011;10161;41.188;-8.642;2022-11-20T12:31:48;5.60;;;2.00;;
20000;SDS011;10161;41.188;-8.642;2022-11-20T12:34:35;6.23;;;2.40;;
20000;SDS011;10161;41.188;-8.642;2022-11-20T12:37:19;4.83;;;2.17;;
20000;SDS011;10161;41.188;-8.642;2022-11-20T12:39:56;3.60;;;2.10;;
20000;SDS011;10161;41.188;-8.642;2022-11-20T12:42:31;7.53;;;2.87;;
20000;SDS011;10161;41.188;-8.642;2022-11-20T12:45:29;3.57;;;1.80;;
20000;SDS011;10161;41.188;-8.642;2022-11-20T12:48:34;4.50;;;2.83;;
20000;SDS011;10161;41.188;-8.642;2022-11-20T12:51:14;3.40;;;1.70;;
20000;SDS011;10161;41.188;-8.642;2022-11-20T12:53:51;6.70;;;2.07;;
20000;SDS011;10161;41.188;-8.642;2022-11-20T12:56:27;2.20;;;1.53;;
20000;SDS011;10161;41.188;-8.642;2022-11-20T12:59:01;4.00;;;2.30;;
20000;SDS011;10161;41.188;-8.642;2022-11-20T13:01:38;4.87;;;2.50;;
20000;SDS011;10161;41.188;-8.642;2022-11-20T13:04:15;7.27;;;3.00;;
20000;SDS011;10161;41.188;-8.642;2022-11-20T13:06:45;8.13;;;3.70;;
20000;SDS011;10161;41.188;-8.642;2022-11-20T13:09:15;5.87;;;2.80;;
20000;SDS011;10161;41.188;-8.642;2022-11-20T13:11:45;7.27;;;2.30;;
20000;SDS011;10161;41.188;-8.642;2022-11-20T13:14:17;9.97;;;2.50;;
20000;SDS011;10161;41.188;-8.642;2022-11-20T13:16:52;7.60;;;2.90;;
20000;SDS011;10161;41.188;-8.642;2022-11-20T13:19:21;5.13;;;2.60;;
20000;SDS011;10161;41.188;-8.642;2022-11-20T13:21:48;8.40;;;2.87;;
20000;SDS011;10161;41.188;-8.642;2022-11-20T13:24:24;8.40;;;3.30;;
20000;SDS011;10161;41.188;-8.642;2022-11-20T13:29:46;9.40;;;3.40;;
20000;SDS011;10161;41.188;-8.642;2022-11-20T13:32:26;4.40;;;2.27;;
20000;SDS011;10161;41.188;-8.642;2022-11-20T13:34:57;4.10;;;2.67;;
20000;SDS011;10161;41.188;-8.642;2022-11-20T13:37:27;3.80;;;2.20;;
20000;SDS011;10161;41.188;-8.642;2022-11-20T13:40:11;5.13;;;2.13;;
20000;SDS011;10161;41.188;-8.642;2022-11-20T13:42:39;5.20;;;2.50;;
20000;SDS011;10161;41.188;-8.642;2022-11-20T13:45:10;4.40;;;2.60;;
20000;SDS011;10161;41.188;-8.642;2022-11-20T13:47:47;29.57;;;3.33;;
20000;SDS011;10161;41.188;-8.642;2022-11-20T13:50:14;4.90;;;2.53;;
20000;SDS011;10161;41.188;-8.642;2022-11-20T13:52:43;3.80;;;3.20;;
20000;SDS011;10161;41.188;-8.642;2022-11-20T13:55:18;3.70;;;2.53;;
20000;SDS011;10161;41.188;-8.642;2022-11-20T14:00:43;2.40;;;1.37;;
20000;SDS011;10161;41.188;-8.642;2022-11-20T14:03:13;3.73;;;1.40;;
20000;SDS011;10161;41.188;-8.642;2022-11-20T14:05:46;14.83;;;1.93;;
20000;SDS011;10161;41.188;-8.642;2022-11-20T14:08:19;21.33;;;2.40;;
20000;SDS011;10161;41.188;-8.642;2022-11-20T14:11:12;2.40;;;2.10;;
20000;SDS011;10161;41.188;-8.642;2022-11-20T14:13:50;5.53;;;2.30;;
20000;SDS011;10161;41.188;-8.642;2022-11-20T14:16:19;2.00;;;1.90;;
20000;SDS011;10161;41.188;-8.642;2022-11-20T14:18:46;2.63;;;1.67;;
20000;SDS011;10161;41.188;-8.642;2022-11-20T14:21:20;7.30;;;2.63;;
20000;SDS011;10161;41.188;-8.642;2022-11-20T14:23:48;3.53;;;2.30;;
20000;SDS011;10161;41.188;-8.642;2022-11-20T14:26:17;11.53;;;3.00;;
20000;SDS011;10161;41.188;-8.642;2022-11-20T14:28:47;5.60;;;2.20;;
20000;SDS011;10161;41.188;-8.642;2022-11-20T14:31:17;9.90;;;3.53;;
20000;SDS011;10161;41.188;-8.642;2022-11-20T14:33:47;18.00;;;4.00;;
20000;SDS011;10161;41.188;-8.642;2022-11-20T14:36:16;16.37;;;4.30;;
20000;SDS011;10161;41.188;-8.642;2022-11-20T14:38:44;33.77;;;4.03;;
20000;SDS011;10161;41.188;-8.642;2022-11-20T14:41:16;5.27;;;3.03;;
20000;SDS011;10161;41.188;-8.642;2022-11-20T14:43:46;5.03;;;3.13;;
20000;SDS011;10161;41.188;-8.642;2022-11-20T14:46:14;3.23;;;2.20;;
20000;SDS011;10161;41.188;-8.642;2022-11-20T14:48:43;4.73;;;2.60;;
20000;SDS011;10161;41.188;-8.642;2022-11-20T14:51:11;3.00;;;2.23;;
20000;SDS011;10161;41.188;-8.642;2022-11-20T14:53:41;6.03;;;2.70;;
20000;SDS011;10161;41.188;-8.642;2022-11-20T14:56:08;9.40;;;3.17;;
20000;SDS011;10161;41.188;-8.642;2022-11-20T14:58:36;9.67;;;2.77;;